Time;durP1;ratioP1;P1;durP2;ratioP2;P2;SDS_P1;SDS_P2;PMS_P1;PMS_P2;Temp;Humidity;BMP_temperature;BMP_pressure;BME280_temperature;BME280_humidity;BME280_pressure;Samples;Min_cycle;Max_cycle;Signal;HPM_P1;HPM_P2
2022/02/18 00:01:39;;;;;;;12.63;3.00;;;282.50;1689.60;;;;;;5040813;28;20400;-79
2022/02/18 00:04:05;;;;;;;;;;;282.30;1689.60;;;;;;5043327;28;20029;-78
2022/02/18 00:06:31;;;;;;;9.88;3.30;;;282.30;1664.00;;;;;;5039677;28;19905;-78
2022/02/18 00:08:57;;;;;;;6.75;2.58;;;282.30;1638.40;;;;;;5034654;28;20021;-77
2022/02/18 00:11:23;;;;;;;7.88;2.83;;;282.30;1612.80;;;;;;5043588;28;20021;-77
2022/02/18 00:13:49;;;;;;;8.55;3.13;;;282.30;1612.80;;;;;;5041002;28;20386;-78
2022/02/18 00:16:14;;;;;;;;;;;282.30;1587.20;;;;;;5039814;28;20119;-78
2022/02/18 00:18:40;;;;;;;9.80;3.80;;;282.30;1587.20;;;;;;5040968;28;19913;-78
2022/02/18 00:21:06;;;;;;;;;;;282.30;1587.20;;;;;;5043137;28;20471;-79
2022/02/18 00:23:32;;;;;;;11.00;3.58;;;282.30;1612.80;;;;;;5041331;28;19920;-79
2022/02/18 00:25:58;;;;;;;11.80;4.50;;;282.40;1587.20;;;;;;5040345;28;20459;-79
2022/02/18 00:28:24;;;;;;;10.32;4.38;;;282.50;1587.20;;;;;;5040511;28;20060;-77
2022/02/18 00:30:50;;;;;;;10.07;3.20;;;282.40;1587.20;;;;;;5040692;28;20048;-78
2022/02/18 00:33:16;;;;;;;15.35;4.18;;;282.50;1587.20;;;;;;5034494;28;20033;-79
2022/02/18 00:35:42;;;;;;;10.70;3.10;;;282.40;1612.80;;;;;;5037710;28;20061;-79
2022/02/18 00:38:08;;;;;;;8.45;3.60;;;282.40;1612.80;;;;;;5040770;28;20060;-77
2022/02/18 00:40:33;;;;;;;;;;;282.40;1612.80;;;;;;5042033;28;20051;-79
2022/02/18 00:42:59;;;;;;;11.05;3.45;;;282.50;1638.40;;;;;;5040989;28;19905;-77
2022/02/18 00:45:25;;;;;;;;;;;282.50;1638.40;;;;;;5040271;28;20025;-76
2022/02/18 00:47:52;;;;;;;9.75;2.63;;;282.50;1638.40;;;;;;5041332;28;19919;-78
2022/02/18 00:50:19;;;;;;;7.55;2.47;;;307.20;1689.60;;;;;;5039335;28;20022;-78
2022/02/18 00:52:45;;;;;;;10.95;2.40;;;282.50;1664.00;;;;;;5041212;28;20100;-78
2022/02/18 00:55:11;;;;;;;12.77;2.53;;;282.30;1664.00;;;;;;5034300;28;20045;-78
2022/02/18 00:57:37;;;;;;;4.97;1.48;;;282.30;1689.60;;;;;;5037784;28;20540;-78
2022/02/18 01:00:04;;;;;;;15.05;2.95;;;282.50;1664.00;;;;;;5040368;28;20586;-77
2022/02/18 01:02:30;;;;;;;8.25;2.47;;;282.30;1689.60;;;;;;5042814;28;20053;-76
2022/02/18 01:04:56;;;;;;;5.32;2.22;;;282.30;1689.60;;;;;;5041100;28;20017;-79
2022/02/18 01:07:23;;;;;;;;;;;282.40;1689.60;;;;;;5038941;28;20022;-77
2022/02/18 01:09:49;;;;;;;10.13;2.60;;;282.40;1689.60;;;;;;5040251;28;19909;-79
2022/02/18 01:12:15;;;;;;;8.38;3.05;;;282.40;1689.60;;;;;;5039825;28;20028;-76
2022/02/18 01:14:40;;;;;;;14.88;2.72;;;282.30;1689.60;;;;;;5039363;28;20422;-79
2022/02/18 01:17:06;;;;;;;;;;;282.20;1715.20;;;;;;5041673;28;20060;-77
2022/02/18 01:19:32;;;;;;;7.63;2.25;;;282.20;1715.20;;;;;;5042608;28;19927;-79
2022/02/18 01:21:58;;;;;;;;;;;282.30;1715.20;;;;;;5037816;28;20475;-77
2022/02/18 01:24:23;;;;;;;8.65;2.05;;;282.30;1715.20;;;;;;5041012;28;19911;-78
2022/02/18 01:26:49;;;;;;;;;;;282.40;1715.20;;;;;;5040769;28;20482;-77
2022/02/18 01:29:14;;;;;;;6.65;2.28;;;282.20;1715.20;;;;;;5039305;28;20363;-78
2022/02/18 01:31:40;;;;;;;;;;;282.20;1740.80;;;;;;5037471;28;20747;-79
2022/02/18 01:34:06;;;;;;;10.80;2.47;;;282.20;1740.80;;;;;;5043688;28;19909;-77
2022/02/18 01:36:31;;;;;;;;;;;282.30;1740.80;;;;;;5045793;28;20030;-77
2022/02/18 01:38:57;;;;;;;9.27;2.35;;;282.20;1740.80;;;;;;5042231;28;19952;-77
2022/02/18 01:41:23;;;;;;;;;;;282.20;1740.80;;;;;;5045472;28;20013;-78
2022/02/18 01:43:56;;;;;;;10.77;2.83;;;282.10;1792.00;;;;;;5043314;28;19905;-77
2022/02/18 01:46:23;;;;;;;6.50;3.33;;;281.90;1792.00;;;;;;5042057;28;20506;-78
2022/02/18 01:48:49;;;;;;;11.70;2.70;;;281.90;1766.40;;;;;;5045196;28;20516;-78
2022/02/18 01:51:20;;;;;;;7.85;3.03;;;282.00;1766.40;;;;;;5044924;28;20025;-77
2022/02/18 01:53:48;;;;;;;9.27;3.08;;;282.00;1766.40;;;;;;5044417;28;20018;-77
2022/02/18 01:56:14;;;;;;;9.30;2.65;;;282.00;1766.40;;;;;;5038403;28;20033;-77
2022/02/18 01:58:41;;;;;;;13.02;3.67;;;281.90;1792.00;;;;;;5040989;28;20482;-77
2022/02/18 02:01:09;;;;;;;12.15;3.80;;;282.00;1766.40;;;;;;5042724;28;20052;-77
2022/02/18 02:03:38;;;;;;;8.45;3.35;;;281.80;1766.40;;;;;;5045710;28;20479;-77
2022/02/18 02:06:05;;;;;;;9.50;3.58;;;281.80;1792.00;;;;;;5041104;28;20382;-78
2022/02/18 02:08:35;;;;;;;13.05;3.03;;;256.90;1766.40;;;;;;5043684;28;20028;-78
2022/02/18 02:11:00;;;;;;;10.60;2.88;;;256.60;1792.00;;;;;;5033182;28;20021;-77
2022/02/18 02:13:38;;;;;;;10.75;2.90;;;256.50;1817.60;;;;;;5043222;28;20125;-79
2022/02/18 02:16:05;;;;;;;13.70;3.33;;;256.50;1843.20;;;;;;5041322;28;20026;-78
2022/02/18 02:18:31;;;;;;;9.45;3.08;;;256.20;1843.20;;;;;;5042347;28;20021;-78
2022/02/18 02:20:57;;;;;;;15.50;4.05;;;256.30;1843.20;;;;;;5043990;28;20368;-79
2022/02/18 02:23:23;;;;;;;8.10;3.03;;;256.20;1843.20;;;;;;5041616;28;20029;-78
2022/02/18 02:25:49;;;;;;;12.27;3.58;;;256.10;1868.80;;;;;;5042848;28;20466;-78
2022/02/18 02:28:15;;;;;;;7.22;2.50;;;256.10;1868.80;;;;;;5045074;28;20028;-77
2022/02/18 02:30:41;;;;;;;9.48;2.83;;;256.10;1868.80;;;;;;5040333;28;20022;-78
2022/02/18 02:33:06;;;;;;;;;;;256.10;1868.80;;;;;;5044305;28;20025;-78
2022/02/18 02:35:32;;;;;;;14.48;3.25;;;256.10;1868.80;;;;;;5039518;28;20366;-79
2022/02/18 02:37:58;;;;;;;;;;;256.00;1894.40;;;;;;5042382;28;20025;-77
2022/02/18 02:40:23;;;;;;;9.80;3.10;;;256.00;1894.40;;;;;;5042055;28;20379;-77
2022/02/18 02:42:49;;;;;;;;;;;256.00;1868.80;;;;;;5044070;28;20021;-79
2022/02/18 02:45:16;;;;;;;8.68;3.28;;;256.00;1868.80;;;;;;5041641;28;19912;-77
2022/02/18 02:47:45;;;;;;;8.55;2.80;;;256.20;1868.80;;;;;;5040377;28;20041;-79
2022/02/18 02:50:11;;;;;;;9.10;3.33;;;256.20;1868.80;;;;;;5043306;28;20021;-78
2022/02/18 02:52:37;;;;;;;13.25;3.15;;;256.50;1868.80;;;;;;5043076;28;20394;-77
2022/02/18 02:55:04;;;;;;;18.52;3.72;;;256.30;1843.20;;;;;;5040572;28;20017;-79
2022/02/18 02:57:30;;;;;;;7.75;2.60;;;256.40;1843.20;;;;;;5046477;28;20022;-77
2022/02/18 02:59:56;;;;;;;11.43;3.42;;;256.50;1843.20;;;;;;5041044;28;20044;-78
2022/02/18 03:02:21;;;;;;;;;;;256.50;1843.20;;;;;;5043474;28;20107;-76
2022/02/18 03:04:47;;;;;;;8.05;2.85;;;256.50;1843.20;;;;;;5035956;28;19905;-76
2022/02/18 03:07:12;;;;;;;;;;;256.50;1843.20;;;;;;5042198;28;20060;-79
2022/02/18 03:09:38;;;;;;;19.33;2.83;;;256.50;1843.20;;;;;;5043905;28;19991;-77
2022/02/18 03:12:04;;;;;;;;;;;256.30;1868.80;;;;;;5044150;28;20475;-76
2022/02/18 03:14:30;;;;;;;14.65;2.95;;;256.40;1868.80;;;;;;5043349;28;19911;-76
2022/02/18 03:16:56;;;;;;;9.30;2.67;;;256.30;1868.80;;;;;;5042349;28;20120;-77
2022/02/18 03:19:22;;;;;;;;;;;256.30;1868.80;;;;;;5041232;28;20021;-79
2022/02/18 03:21:51;;;;;;;12.00;2.65;;;256.30;1868.80;;;;;;5042033;28;19905;-78
2022/02/18 03:24:18;;;;;;;14.63;2.90;;;256.30;1868.80;;;;;;5042663;28;20029;-78
2022/02/18 03:26:44;;;;;;;6.95;2.15;;;256.80;1894.40;;;;;;5037483;28;20036;-79
2022/02/18 03:29:10;;;;;;;9.68;2.50;;;256.10;1894.40;;;;;;5041867;28;20025;-78
2022/02/18 03:31:35;;;;;;;;;;;256.10;1894.40;;;;;;5041189;28;20071;-77
2022/02/18 03:34:01;;;;;;;12.90;2.53;;;256.20;1894.40;;;;;;5042635;28;19999;-79
2022/02/18 03:36:26;;;;;;;;;;;256.10;1894.40;;;;;;5040302;28;20038;-77
2022/02/18 03:38:55;;;;;;;12.30;2.33;;;256.20;1894.40;;;;;;5042596;28;19905;-78
2022/02/18 03:41:21;;;;;;;20.35;3.33;;;256.10;1894.40;;;;;;5040506;28;20467;-78
2022/02/18 03:43:47;;;;;;;9.85;3.50;;;256.10;1894.40;;;;;;5043287;28;20036;-78
2022/02/18 03:46:13;;;;;;;12.15;2.80;;;256.20;1894.40;;;;;;5041613;28;20026;-79
2022/02/18 03:48:38;;;;;;;;;;;256.20;1894.40;;;;;;5043763;28;20020;-77
2022/02/18 03:51:04;;;;;;;13.48;2.72;;;256.20;1894.40;;;;;;5041707;28;19905;-79
2022/02/18 03:53:30;;;;;;;;;;;256.00;1894.40;;;;;;5040765;28;20021;-76
2022/02/18 03:55:59;;;;;;;9.32;2.42;;;256.10;1894.40;;;;;;5041666;28;19909;-77
2022/02/18 03:58:28;;;;;;;12.88;3.45;;;231.30;1894.40;;;;;;5037779;28;20086;-76
2022/02/18 04:00:54;;;;;;;13.90;5.82;;;231.30;1894.40;;;;;;5042301;28;20029;-78
2022/02/18 04:03:20;;;;;;;12.82;3.78;;;231.30;1894.40;;;;;;5040207;28;20032;-79
2022/02/18 04:05:46;;;;;;;9.10;2.55;;;231.30;1894.40;;;;;;5038650;28;20024;-79
2022/02/18 04:08:12;;;;;;;8.40;2.20;;;231.20;1920.00;;;;;;5034187;28;20021;-79
2022/02/18 04:10:38;;;;;;;10.70;2.22;;;231.10;1920.00;;;;;;5041386;28;20032;-78
2022/02/18 04:13:04;;;;;;;;;;;231.10;1920.00;;;;;;5040195;28;20352;-78
2022/02/18 04:15:30;;;;;;;7.72;1.65;;;230.90;1945.60;;;;;;5039729;28;19905;-76
2022/02/18 04:17:55;;;;;;;;;;;230.70;1996.80;;;;;;5042160;28;20087;-78
2022/02/18 04:20:21;;;;;;;5.30;1.50;;;230.60;2022.40;;;;;;5041756;28;19909;-78
2022/02/18 04:22:47;;;;;;;;;;;230.40;2048.00;;;;;;5040395;28;20028;-79
2022/02/18 04:25:13;;;;;;;9.27;2.17;;;230.40;2073.60;;;;;;5042395;28;19947;-79
2022/02/18 04:27:39;;;;;;;14.50;1.90;;;205.70;2073.60;;;;;;5033731;28;20483;-78
2022/02/18 04:30:05;;;;;;;;;;;205.60;2099.20;;;;;;5039945;28;20032;-79
2022/02/18 04:32:31;;;;;;;7.13;2.20;;;205.50;2099.20;;;;;;5040879;28;19935;-79
2022/02/18 04:34:57;;;;;;;;;;;205.30;2124.80;;;;;;5042835;28;20387;-76
2022/02/18 04:37:22;;;;;;;13.95;2.47;;;205.20;2150.40;;;;;;5040587;28;20003;-78
2022/02/18 04:39:49;;;;;;;;;;;205.30;2150.40;;;;;;5044080;28;20025;-79
2022/02/18 04:42:14;;;;;;;10.70;1.50;;;205.30;2124.80;;;;;;5041561;28;19991;-78
2022/02/18 04:44:40;;;;;;;;;;;205.20;2150.40;;;;;;5038435;28;20124;-79
2022/02/18 04:47:06;;;;;;;6.95;1.40;;;205.20;2150.40;;;;;;5041566;28;19905;-79
2022/02/18 04:49:32;;;;;;;14.93;1.95;;;205.20;2176.00;;;;;;5038762;28;20072;-76
2022/02/18 04:51:57;;;;;;;;;;;205.10;2176.00;;;;;;5042221;28;20033;-77
2022/02/18 04:54:23;;;;;;;10.32;1.92;;;205.10;2201.60;;;;;;5039879;28;20015;-77
2022/02/18 04:56:49;;;;;;;;;;;205.10;2201.60;;;;;;5042870;28;20483;-78
2022/02/18 04:59:16;;;;;;;8.25;2.15;;;205.20;2201.60;;;;;;5038260;28;20349;-79
2022/02/18 05:01:46;;;;;;;7.03;1.83;;;205.20;2176.00;;;;;;5040625;28;20042;-78
2022/02/18 05:04:12;;;;;;;12.93;1.90;;;205.10;2201.60;;;;;;5037776;28;20037;-77
2022/02/18 05:06:37;;;;;;;;;;;205.10;2201.60;;;;;;5047038;28;20083;-76
2022/02/18 05:09:03;;;;;;;10.25;1.67;;;205.10;2201.60;;;;;;5045353;28;19912;-77
2022/02/18 05:11:29;;;;;;;;;;;204.90;2227.20;;;;;;5043184;28;20544;-76
2022/02/18 05:13:54;;;;;;;7.10;2.25;;;204.80;2252.80;;;;;;5045176;28;20446;-79
2022/02/18 05:16:20;;;;;;;;;;;180.10;2252.80;;;;;;5045284;28;20069;-79
2022/02/18 05:18:47;;;;;;;12.50;3.00;;;204.80;2252.80;;;;;;5043816;28;19962;-77
2022/02/18 05:21:17;;;;;;;8.95;2.33;;;204.80;2252.80;;;;;;5044539;28;20048;-76
2022/02/18 05:23:44;;;;;;;11.07;2.22;;;180.10;2252.80;;;;;;5044849;28;20028;-77
2022/02/18 05:26:09;;;;;;;6.93;1.77;;;180.10;2252.80;;;;;;5037299;28;20021;-79
2022/02/18 05:28:35;;;;;;;;;;;180.10;2252.80;;;;;;5042134;28;20040;-77
2022/02/18 05:31:01;;;;;;;9.15;1.70;;;204.80;2252.80;;;;;;5043121;28;19955;-78
2022/02/18 05:33:26;;;;;;;;;;;204.80;2252.80;;;;;;5045111;28;20101;-77
2022/02/18 05:35:52;;;;;;;2.95;1.35;;;204.80;2252.80;;;;;;5042974;28;20371;-79
2022/02/18 05:38:17;;;;;;;;;;;204.80;2252.80;;;;;;5042728;28;20028;-76
2022/02/18 05:40:43;;;;;;;6.90;1.70;;;204.90;2252.80;;;;;;5045691;28;19905;-79
2022/02/18 05:43:09;;;;;;;;;;;205.00;2252.80;;;;;;5040570;28;20029;-79
2022/02/18 05:45:35;;;;;;;14.35;2.78;;;205.10;2252.80;;;;;;5043713;28;19915;-77
2022/02/18 05:48:01;;;;;;;;;;;205.10;2252.80;;;;;;5044622;28;20116;-79
2022/02/18 05:50:26;;;;;;;7.15;2.92;;;205.00;2252.80;;;;;;5046392;28;19904;-77
2022/02/18 05:52:52;;;;;;;;;;;205.00;2252.80;;;;;;5043352;28;20442;-77
2022/02/18 05:55:18;;;;;;;7.43;2.72;;;205.10;2252.80;;;;;;5043539;28;20401;-78
2022/02/18 05:57:43;;;;;;;;;;;205.10;2252.80;;;;;;5041727;28;20041;-79
2022/02/18 06:00:10;;;;;;;13.05;5.43;;;205.10;2252.80;;;;;;5042314;28;20255;-77
2022/02/18 06:02:36;;;;;;;6.55;2.47;;;205.10;2252.80;;;;;;5043257;28;20056;-77
2022/02/18 06:05:05;;;;;;;;;;;205.10;2252.80;;;;;;5045559;28;20021;-78
2022/02/18 06:07:31;;;;;;;11.82;2.50;;;205.20;2252.80;;;;;;5039139;28;20428;-78
2022/02/18 06:09:56;;;;;;;;;;;205.30;2252.80;;;;;;5045157;28;20064;-77
2022/02/18 06:12:22;;;;;;;11.52;3.55;;;205.20;2252.80;;;;;;5043993;28;20351;-79
2022/02/18 06:14:50;;;;;;;;;;;205.20;2252.80;;;;;;5041974;28;20111;-77
2022/02/18 06:17:25;;;;;;;41.58;19.25;;;205.20;2252.80;;;;;;5044141;28;19944;-78
2022/02/18 06:19:51;;;;;;;76.53;31.42;;;205.20;2252.80;;;;;;5040590;28;20523;-77
2022/02/18 06:22:17;;;;;;;;;;;205.30;2252.80;;;;;;5043457;28;20025;-77
2022/02/18 06:24:43;;;;;;;54.15;25.52;;;205.40;2252.80;;;;;;5044581;28;19992;-78
2022/02/18 06:27:09;;;;;;;;;;;205.40;2252.80;;;;;;5043671;28;20057;-78
2022/02/18 06:29:35;;;;;;;35.63;17.20;;;205.40;2252.80;;;;;;5045361;28;20385;-78
2022/02/18 06:32:02;;;;;;;;;;;205.50;2252.80;;;;;;5042884;28;20542;-78
2022/02/18 06:34:28;;;;;;;33.00;17.10;;;205.60;2227.20;;;;;;5044223;28;20024;-81
2022/02/18 06:36:54;;;;;;;;;;;205.70;2227.20;;;;;;5042647;28;20049;-79
2022/02/18 06:39:20;;;;;;;11.93;5.50;;;205.70;2227.20;;;;;;5043960;28;20005;-77
2022/02/18 06:41:47;;;;;;;10.82;2.83;;;205.60;2227.20;;;;;;5043591;28;20029;-77
2022/02/18 06:44:13;;;;;;;8.73;4.30;;;230.40;2227.20;;;;;;5040660;28;20025;-81
2022/02/18 06:46:39;;;;;;;9.25;4.22;;;230.50;2227.20;;;;;;5043761;28;20096;-76
2022/02/18 06:49:05;;;;;;;;;;;230.60;2201.60;;;;;;5044376;28;20170;-76
2022/02/18 06:51:31;;;;;;;18.90;7.97;;;230.70;2176.00;;;;;;5044631;28;20351;-80
2022/02/18 06:53:56;;;;;;;;;;;230.80;2176.00;;;;;;5041174;28;20036;-80
2022/02/18 06:56:22;;;;;;;88.75;35.17;;;230.80;2176.00;;;;;;5036122;28;19912;-77
2022/02/18 06:58:48;;;;;;;;;;;230.90;2176.00;;;;;;5044875;28;20068;-82
2022/02/18 07:01:13;;;;;;;21.98;9.60;;;231.00;2176.00;;;;;;5043018;28;20405;-79
2022/02/18 07:03:39;;;;;;;;;;;231.00;2176.00;;;;;;5042093;28;20022;-79
2022/02/18 07:06:05;;;;;;;12.90;6.43;;;231.00;2176.00;;;;;;5043041;28;20396;-80
2022/02/18 07:08:31;;;;;;;;;;;231.10;2176.00;;;;;;5036809;28;20021;-81
2022/02/18 07:10:57;;;;;;;12.90;6.22;;;231.10;2176.00;;;;;;5033076;28;19915;-82
2022/02/18 07:13:23;;;;;;;17.20;7.60;;;231.20;2150.40;;;;;;5036315;28;20400;-76
2022/02/18 07:15:49;;;;;;;17.13;5.55;;;231.20;2176.00;;;;;;5042703;28;20043;-80
2022/02/18 07:18:16;;;;;;;;;;;231.30;2150.40;;;;;;5044362;28;20042;-87
2022/02/18 07:20:42;;;;;;;7.05;3.63;;;231.20;2150.40;;;;;;5044419;28;19905;-85
2022/02/18 07:23:08;;;;;;;10.98;3.80;;;256.10;2150.40;;;;;;5043771;28;20542;-86
2022/02/18 07:25:34;;;;;;;12.60;4.20;;;256.30;2150.40;;;;;;5042872;28;20478;-81
2022/02/18 07:28:00;;;;;;;14.75;5.82;;;256.20;2201.60;;;;;;5040432;28;20017;-80
2022/02/18 07:30:27;;;;;;;60.20;27.40;;;256.40;2150.40;;;;;;5052101;28;20028;-77
2022/02/18 07:32:53;;;;;;;14.95;6.32;;;256.60;2124.80;;;;;;5053810;28;20025;-84
2022/02/18 07:35:20;;;;;;;23.67;8.00;;;256.60;2099.20;;;;;;5052388;28;20060;-83
2022/02/18 07:37:49;;;;;;;8.82;2.72;;;256.70;2099.20;;;;;;5052384;28;20032;-85
2022/02/18 07:40:16;;;;;;;8.52;2.97;;;256.80;2073.60;;;;;;5052109;28;20469;-83
2022/02/18 07:42:43;;;;;;;14.65;4.32;;;256.90;2048.00;;;;;;5052147;28;20036;-83
2022/02/18 07:45:14;;;;;;;12.35;4.82;;;281.60;2073.60;;;;;;5052293;28;20028;-78
2022/02/18 07:47:39;;;;;;;15.10;3.45;;;281.70;2048.00;;;;;;5052791;28;20379;-77
2022/02/18 07:50:06;;;;;;;13.88;3.42;;;281.70;2073.60;;;;;;5052204;28;20021;-77
2022/02/18 07:52:32;;;;;;;9.30;3.00;;;281.80;2048.00;;;;;;5051774;28;20028;-81
2022/02/18 07:54:58;;;;;;;11.07;4.82;;;281.90;2048.00;;;;;;5052044;28;20551;-83
2022/02/18 07:57:24;;;;;;;14.52;3.55;;;282.00;2022.40;;;;;;5053042;28;20032;-85
2022/02/18 07:59:50;;;;;;;13.45;4.78;;;282.20;1996.80;;;;;;5051764;28;20025;-77
2022/02/18 08:02:16;;;;;;;12.15;4.38;;;282.20;1996.80;;;;;;5051550;28;20048;-78
2022/02/18 08:04:42;;;;;;;;;;;282.40;1920.00;;;;;;5052332;28;20025;-90
2022/02/18 08:07:08;;;;;;;7.73;2.80;;;282.40;1920.00;;;;;;5048297;28;19909;-82
2022/02/18 08:09:34;;;;;;;8.93;2.65;;;282.50;1894.40;;;;;;5033420;28;20542;-76
2022/02/18 08:12:00;;;;;;;;;;;282.50;1843.20;;;;;;5033250;28;20017;-84
2022/02/18 08:14:26;;;;;;;6.90;2.33;;;282.50;1868.80;;;;;;5031632;28;20275;-77
2022/02/18 08:16:52;;;;;;;;;;;282.50;1894.40;;;;;;5032339;28;20037;-84
2022/02/18 08:19:21;;;;;;;6.80;2.80;;;307.20;1920.00;;;;;;5040464;28;20347;-84
2022/02/18 08:21:48;;;;;;;9.70;2.53;;;307.20;1920.00;;;;;;5042078;28;20057;-81
2022/02/18 08:24:18;;;;;;;8.30;2.70;;;307.20;1920.00;;;;;;5039904;28;20386;-77
2022/02/18 08:26:47;;;;;;;13.27;4.22;;;307.30;1945.60;;;;;;5041495;28;20040;-80
2022/02/18 08:29:15;;;;;;;11.50;3.58;;;307.40;1945.60;;;;;;5052201;28;20025;-77
2022/02/18 08:31:41;;;;;;;13.13;5.47;;;307.50;1945.60;;;;;;5045177;28;20017;-77
2022/02/18 08:34:07;;;;;;;12.02;4.03;;;307.50;1945.60;;;;;;5039103;28;20491;-81
2022/02/18 08:36:35;;;;;;;;;;;307.60;1894.40;;;;;;5040641;28;20092;-81
2022/02/18 08:39:01;;;;;;;14.43;3.42;;;307.60;1843.20;;;;;;5049383;28;20045;-82
2022/02/18 08:41:27;;;;;;;7.78;3.20;;;307.60;1817.60;;;;;;5051656;28;20021;-76
2022/02/18 08:43:57;;;;;;;7.38;2.75;;;307.60;1843.20;;;;;;5052493;28;20031;-75
2022/02/18 08:46:23;;;;;;;6.65;2.78;;;307.60;1868.80;;;;;;5051953;28;20021;-81
2022/02/18 08:48:48;;;;;;;15.88;6.07;;;307.60;1843.20;;;;;;5052236;28;20395;-75
2022/02/18 08:51:14;;;;;;;16.02;4.53;;;307.60;1894.40;;;;;;5052275;28;20036;-80
2022/02/18 08:53:40;;;;;;;;;;;307.70;1868.80;;;;;;5052587;28;20021;-80
2022/02/18 08:56:06;;;;;;;14.50;4.07;;;307.70;1894.40;;;;;;5051824;28;20374;-76
2022/02/18 08:58:32;;;;;;;13.63;5.35;;;307.60;1894.40;;;;;;5050678;28;20545;-75
2022/02/18 09:00:58;;;;;;;13.40;4.35;;;307.70;1894.40;;;;;;5052194;28;20033;-76
2022/02/18 09:03:23;;;;;;;;;;;307.80;1868.80;;;;;;5052851;28;20029;-80
2022/02/18 09:05:49;;;;;;;8.70;4.25;;;307.80;1868.80;;;;;;5052017;28;20346;-75
2022/02/18 09:08:15;;;;;;;17.60;5.47;;;307.90;1894.40;;;;;;5050742;28;20120;-77
2022/02/18 09:10:41;;;;;;;;;;;307.90;1843.20;;;;;;5052306;28;20032;-75
2022/02/18 09:13:08;;;;;;;23.60;5.47;;;307.90;1843.20;;;;;;5051654;28;19904;-76
2022/02/18 09:15:34;;;;;;;25.95;9.60;;;308.00;1843.20;;;;;;5051049;28;20057;-83
2022/02/18 09:18:00;;;;;;;10.18;5.50;;;308.00;1843.20;;;;;;5050170;28;20090;-76
2022/02/18 09:20:26;;;;;;;17.40;3.40;;;308.00;1843.20;;;;;;5052138;28;20029;-76
2022/02/18 09:22:52;;;;;;;10.73;2.88;;;307.90;1843.20;;;;;;5051912;28;20032;-76
2022/02/18 09:25:17;;;;;;;11.30;3.65;;;308.00;1843.20;;;;;;5051663;28;20470;-82
2022/02/18 09:27:43;;;;;;;;;;;307.90;1843.20;;;;;;5052294;28;20029;-82
2022/02/18 09:30:10;;;;;;;10.63;3.38;;;308.00;1868.80;;;;;;5051853;28;19923;-84
2022/02/18 09:32:37;;;;;;;14.95;3.70;;;307.90;1843.20;;;;;;5051893;28;20430;-77
2022/02/18 09:35:03;;;;;;;11.40;3.65;;;308.00;1817.60;;;;;;5051661;28;20470;-77
2022/02/18 09:37:30;;;;;;;11.02;4.60;;;308.00;1817.60;;;;;;5051931;28;20072;-76
2022/02/18 09:39:56;;;;;;;14.13;4.05;;;308.00;1843.20;;;;;;5051793;28;20041;-77
2022/02/18 09:42:23;;;;;;;13.02;3.97;;;308.00;1843.20;;;;;;5051587;28;20029;-76
2022/02/18 09:44:50;;;;;;;19.23;3.63;;;308.10;1817.60;;;;;;5051590;28;20028;-76
2022/02/18 09:47:16;;;;;;;12.77;3.78;;;308.10;1817.60;;;;;;5050511;28;20123;-76
2022/02/18 09:49:43;;;;;;;14.63;3.95;;;333.00;1843.20;;;;;;5051690;28;20051;-76
2022/02/18 09:52:11;;;;;;;20.27;4.13;;;332.80;1817.60;;;;;;5051410;28;20052;-84
2022/02/18 09:54:37;;;;;;;26.25;6.88;;;332.80;1817.60;;;;;;5055005;28;20494;-76
2022/02/18 09:57:03;;;;;;;16.25;6.03;;;332.80;1817.60;;;;;;5054649;28;20044;-79
2022/02/18 09:59:29;;;;;;;17.67;7.15;;;332.80;1792.00;;;;;;5054933;28;20109;-76
2022/02/18 10:01:55;;;;;;;17.33;4.55;;;308.10;1715.20;;;;;;5054690;28;20216;-81
2022/02/18 10:04:21;;;;;;;13.43;4.35;;;308.10;1715.20;;;;;;5055192;28;20074;-80
2022/02/18 10:06:47;;;;;;;15.57;4.95;;;332.80;1715.20;;;;;;5054556;28;20021;-76
2022/02/18 10:09:13;;;;;;;19.98;6.25;;;332.80;1638.40;;;;;;5053415;28;20029;-79
2022/02/18 10:11:53;;;;;;;15.68;5.95;;;332.80;1638.40;;;;;;5054644;28;20044;-87
2022/02/18 10:14:19;;;;;;;15.32;4.68;;;332.80;1664.00;;;;;;5053996;28;20056;-86
2022/02/18 10:16:45;;;;;;;10.90;5.05;;;332.80;1638.40;;;;;;5053728;28;20045;-77
2022/02/18 10:19:10;;;;;;;;;;;332.80;1612.80;;;;;;5053548;28;20029;-76
2022/02/18 10:21:38;;;;;;;23.17;9.48;;;332.80;1612.80;;;;;;5054679;28;19905;-76
2022/02/18 10:24:07;;;;;;;19.83;7.80;;;332.80;1638.40;;;;;;5053151;28;20116;-75
2022/02/18 10:26:44;;;;;;;25.20;9.63;;;308.10;1638.40;;;;;;5054594;28;20499;-76
2022/02/18 10:29:17;;;;;;;14.68;4.93;;;308.00;1612.80;;;;;;5054838;28;20025;-77
2022/02/18 10:31:43;;;;;;;9.88;3.88;;;308.10;1587.20;;;;;;5053300;28;20061;-75
2022/02/18 10:34:10;;;;;;;8.77;4.00;;;332.80;1612.80;;;;;;5053334;28;20025;-82
2022/02/18 10:36:37;;;;;;;16.58;5.00;;;332.80;1587.20;;;;;;5054364;28;20120;-76
2022/02/18 10:39:23;;;;;;;26.85;11.02;;;332.90;1587.20;;;;;;5053159;28;20021;-79
2022/02/18 10:42:01;;;;;;;17.65;7.05;;;332.80;1561.60;;;;;;5054249;28;20029;-75
2022/02/18 10:44:34;;;;;;;12.63;6.10;;;332.90;1536.00;;;;;;5053946;28;20382;-76
2022/02/18 10:47:05;;;;;;;15.45;4.18;;;332.90;1536.00;;;;;;5054495;28;20021;-80
2022/02/18 10:49:43;;;;;;;10.90;3.70;;;333.00;1510.40;;;;;;5053070;28;20025;-81
2022/02/18 10:52:13;;;;;;;11.98;4.55;;;333.00;1510.40;;;;;;5053541;28;20111;-81
2022/02/18 10:54:39;;;;;;;10.30;3.75;;;333.20;1484.80;;;;;;5053118;28;20100;-82
2022/02/18 10:57:13;;;;;;;13.88;4.65;;;333.40;1510.40;;;;;;5052698;28;20033;-81
2022/02/18 10:59:40;;;;;;;7.93;2.85;;;333.40;1484.80;;;;;;5052802;28;20104;-76
2022/02/18 11:02:06;;;;;;;11.07;4.47;;;333.40;1459.20;;;;;;5052015;28;20080;-75
2022/02/18 11:04:31;;;;;;;10.57;4.70;;;333.40;1484.80;;;;;;5052992;28;20442;-76
2022/02/18 11:07:14;;;;;;;8.10;3.22;;;333.30;1484.80;;;;;;5053816;28;20025;-75
2022/02/18 11:09:42;;;;;;;12.50;3.35;;;333.40;1459.20;;;;;;5052644;28;20025;-75
2022/02/18 11:12:09;;;;;;;8.52;4.20;;;333.40;1484.80;;;;;;5053635;28;20021;-76
2022/02/18 11:14:39;;;;;;;7.50;2.22;;;333.70;1433.60;;;;;;5053603;28;20029;-75
2022/02/18 11:17:06;;;;;;;7.45;3.25;;;333.70;1408.00;;;;;;5048052;28;20039;-80
2022/02/18 11:19:32;;;;;;;6.70;2.60;;;333.70;1433.60;;;;;;5038366;28;20037;-85
2022/02/18 11:21:59;;;;;;;17.80;6.53;;;358.40;1382.40;;;;;;5042741;28;20017;-76
2022/02/18 11:24:25;;;;;;;15.52;4.63;;;333.70;1382.40;;;;;;5034922;28;20018;-78
2022/02/18 11:26:52;;;;;;;10.10;3.75;;;333.70;1408.00;;;;;;5043010;28;20479;-78
2022/02/18 11:29:21;;;;;;;10.98;4.28;;;333.70;1408.00;;;;;;5042196;28;20009;-76
2022/02/18 11:31:53;;;;;;;13.80;5.18;;;333.70;1408.00;;;;;;5027701;28;20097;-80
2022/02/18 11:34:37;;;;;;;11.85;4.97;;;333.70;1408.00;;;;;;5042224;28;20024;-80
2022/02/18 11:37:07;;;;;;;24.13;8.38;;;358.40;1408.00;;;;;;5043268;28;20041;-79
2022/02/18 11:39:38;;;;;;;17.02;6.20;;;358.50;1408.00;;;;;;5040759;28;20014;-84
2022/02/18 11:42:41;;;;;;;10.20;3.55;;;358.60;1408.00;;;;;;5044342;28;20053;-76
2022/02/18 11:45:17;;;;;;;10.23;3.28;;;358.50;1356.80;;;;;;5042065;28;20479;-75
2022/02/18 11:47:46;;;;;;;6.10;2.25;;;358.60;1356.80;;;;;;5037954;28;20036;-76
2022/02/18 11:50:17;;;;;;;5.90;2.25;;;358.80;1331.20;;;;;;5036093;28;20029;-75
2022/02/18 11:52:49;;;;;;;11.57;4.32;;;358.80;1305.60;;;;;;5032815;28;20160;-86
2022/02/18 11:55:37;;;;;;;8.23;3.15;;;358.90;1356.80;;;;;;5031581;28;20029;-76
2022/02/18 11:58:09;;;;;;;7.38;2.53;;;358.90;1331.20;;;;;;5032748;28;20036;-82
2022/02/18 12:00:38;;;;;;;7.65;3.17;;;358.90;1305.60;;;;;;5034291;28;20059;-75
2022/02/18 12:03:15;;;;;;;8.52;2.42;;;358.80;1331.20;;;;;;5037106;28;20065;-80
2022/02/18 12:06:10;;;;;;;12.00;3.80;;;358.70;1331.20;;;;;;5021627;28;20029;-79
2022/02/18 12:08:38;;;;;;;9.55;2.90;;;358.80;1331.20;;;;;;5032161;28;20162;-76
2022/02/18 12:11:08;;;;;;;22.63;5.97;;;358.90;1305.60;;;;;;5043643;28;20498;-82
2022/02/18 12:13:50;;;;;;;13.70;3.63;;;358.90;1305.60;;;;;;5037966;28;20468;-82
2022/02/18 12:16:17;;;;;;;8.50;2.75;;;358.90;1331.20;;;;;;5030464;28;20395;-75
2022/02/18 12:18:59;;;;;;;12.13;4.70;;;359.00;1305.60;;;;;;5030784;28;20045;-84
2022/02/18 12:21:25;;;;;;;15.05;3.97;;;359.10;1305.60;;;;;;5031467;28;20045;-76
2022/02/18 12:23:51;;;;;;;12.13;3.83;;;359.10;1305.60;;;;;;5032479;28;20024;-75
2022/02/18 12:26:17;;;;;;;8.07;2.33;;;359.20;1305.60;;;;;;5031389;28;20110;-82
2022/02/18 12:28:43;;;;;;;7.18;2.88;;;359.20;1280.00;;;;;;5032193;28;20018;-75